LCO1015 SGAS-SAEZ
Flight info
| Callsign | LCO1015 |
|---|---|
| Flight time | N/A |
| Altitude | 32000 |
| Route | ITAPE ASATI UP526 GEMSU UN785 GUA UZ129 PAGON PAGON7X |
| Aircraft | B77L/H-SDE1E2E3FGHIJ2J3J4J5M1RWXY/LB1D1 |
Departure
| Time | N/A |
|---|---|
| Airport | Silvio Pettirossi International Airport (SGAS) |
Arrival
| Time | 2026-05-03 20:42 |
|---|---|
| Airport | Ezeiza International Airport - Ministro Pistarini (SAEZ) |
| Time | Latitude | Longitude | Altitude | Speed | Heading |
|---|---|---|---|---|---|
| 2026-05-03 20:15 | -33.07424 | -58.62198 | 32108 ft | 463 kts | 189° |
| 2026-05-03 20:15 | -33.13810 | -58.62891 | 32111 ft | 463 kts | 189° |
| 2026-05-03 20:16 | -33.20206 | -58.63631 | 32116 ft | 463 kts | 190° |
| 2026-05-03 20:16 | -33.26646 | -58.64387 | 32121 ft | 463 kts | 190° |
| 2026-05-03 20:17 | -33.33049 | -58.65138 | 32127 ft | 463 kts | 190° |
| 2026-05-03 20:17 | -33.39418 | -58.65884 | 32128 ft | 463 kts | 190° |
| 2026-05-03 20:18 | -33.45842 | -58.66638 | 32124 ft | 463 kts | 190° |
| 2026-05-03 20:18 | -33.52261 | -58.67391 | 32109 ft | 457 kts | 190° |
| 2026-05-03 20:18 | -33.55435 | -58.67764 | 31365 ft | 460 kts | 190° |
| 2026-05-03 20:19 | -33.58608 | -58.68137 | 30846 ft | 453 kts | 190° |
| 2026-05-03 20:19 | -33.61723 | -58.68502 | 30219 ft | 451 kts | 190° |
| 2026-05-03 20:19 | -33.64854 | -58.68872 | 29513 ft | 449 kts | 190° |
| 2026-05-03 20:19 | -33.67978 | -58.69242 | 28853 ft | 447 kts | 190° |
| 2026-05-03 20:20 | -33.71046 | -58.69604 | 28238 ft | 445 kts | 190° |
| 2026-05-03 20:20 | -33.74130 | -58.69969 | 27618 ft | 443 kts | 190° |
| 2026-05-03 20:20 | -33.77203 | -58.70277 | 27018 ft | 442 kts | 186° |
| 2026-05-03 20:20 | -33.80261 | -58.70092 | 26423 ft | 447 kts | 176° |
| 2026-05-03 20:21 | -33.83326 | -58.69258 | 25843 ft | 452 kts | 167° |
| 2026-05-03 20:21 | -33.86249 | -58.67926 | 25295 ft | 454 kts | 162° |
| 2026-05-03 20:21 | -33.89150 | -58.66384 | 24859 ft | 451 kts | 160° |
| 2026-05-03 20:21 | -33.92005 | -58.64798 | 24474 ft | 448 kts | 160° |
| 2026-05-03 20:22 | -33.94807 | -58.63225 | 23983 ft | 447 kts | 160° |
| 2026-05-03 20:22 | -33.97613 | -58.61647 | 23501 ft | 445 kts | 160° |
| 2026-05-03 20:22 | -34.00432 | -58.60061 | 23111 ft | 443 kts | 160° |
| 2026-05-03 20:22 | -34.03190 | -58.58507 | 22799 ft | 441 kts | 160° |
| 2026-05-03 20:23 | -34.05997 | -58.56925 | 22503 ft | 441 kts | 160° |
| 2026-05-03 20:23 | -34.08758 | -58.55368 | 22236 ft | 439 kts | 160° |
| 2026-05-03 20:23 | -34.11538 | -58.53800 | 22025 ft | 438 kts | 160° |
| 2026-05-03 20:23 | -34.14267 | -58.52258 | 21837 ft | 437 kts | 160° |
| 2026-05-03 20:24 | -34.17021 | -58.50702 | 21585 ft | 436 kts | 160° |
| 2026-05-03 20:24 | -34.19767 | -58.49150 | 21228 ft | 435 kts | 160° |
| 2026-05-03 20:24 | -34.22487 | -58.47613 | 20858 ft | 433 kts | 160° |
| 2026-05-03 20:24 | -34.25210 | -58.46073 | 20463 ft | 430 kts | 160° |
| 2026-05-03 20:25 | -34.27942 | -58.44526 | 20074 ft | 428 kts | 160° |
| 2026-05-03 20:25 | -34.30600 | -58.43019 | 19700 ft | 425 kts | 160° |
| 2026-05-03 20:25 | -34.33278 | -58.41501 | 19323 ft | 423 kts | 160° |
| 2026-05-03 20:25 | -34.35946 | -58.39987 | 18951 ft | 422 kts | 160° |
| 2026-05-03 20:26 | -34.38577 | -58.38496 | 18585 ft | 420 kts | 160° |
| 2026-05-03 20:26 | -34.41241 | -58.36986 | 18184 ft | 418 kts | 160° |
| 2026-05-03 20:26 | -34.43858 | -58.35508 | 17775 ft | 416 kts | 160° |
| 2026-05-03 20:26 | -34.46485 | -58.34026 | 17355 ft | 410 kts | 160° |
| 2026-05-03 20:27 | -34.49021 | -58.32592 | 16901 ft | 399 kts | 160° |
| 2026-05-03 20:27 | -34.51467 | -58.31198 | 16422 ft | 375 kts | 160° |
| 2026-05-03 20:27 | -34.53757 | -58.29880 | 15972 ft | 353 kts | 160° |
| 2026-05-03 20:27 | -34.55917 | -58.28626 | 15525 ft | 334 kts | 160° |
| 2026-05-03 20:28 | -34.57936 | -58.27445 | 15091 ft | 319 kts | 160° |
| 2026-05-03 20:28 | -34.59933 | -58.26276 | 14679 ft | 314 kts | 160° |
| 2026-05-03 20:28 | -34.61881 | -58.25138 | 14291 ft | 313 kts | 160° |
| 2026-05-03 20:28 | -34.63859 | -58.23988 | 13903 ft | 313 kts | 160° |
| 2026-05-03 20:29 | -34.65809 | -58.22859 | 13472 ft | 312 kts | 160° |
| 2026-05-03 20:29 | -34.67772 | -58.21726 | 13035 ft | 311 kts | 160° |
| 2026-05-03 20:29 | -34.69740 | -58.20593 | 12603 ft | 310 kts | 160° |
| 2026-05-03 20:29 | -34.71669 | -58.19485 | 12137 ft | 309 kts | 160° |
| 2026-05-03 20:30 | -34.73625 | -58.18368 | 11658 ft | 307 kts | 160° |
| 2026-05-03 20:30 | -34.75537 | -58.17279 | 11208 ft | 306 kts | 160° |
| 2026-05-03 20:30 | -34.77524 | -58.16446 | 10739 ft | 299 kts | 174° |
| 2026-05-03 20:30 | -34.79570 | -58.16073 | 10320 ft | 296 kts | 179° |
| 2026-05-03 20:31 | -34.81618 | -58.15803 | 9859 ft | 295 kts | 179° |
| 2026-05-03 20:31 | -34.83640 | -58.15552 | 9358 ft | 287 kts | 179° |
| 2026-05-03 20:31 | -34.85600 | -58.15313 | 8852 ft | 279 kts | 180° |
| 2026-05-03 20:31 | -34.87510 | -58.15088 | 8402 ft | 280 kts | 180° |
| 2026-05-03 20:32 | -34.89469 | -58.14871 | 7954 ft | 281 kts | 180° |
| 2026-05-03 20:32 | -34.91397 | -58.14666 | 7460 ft | 275 kts | 180° |
| 2026-05-03 20:32 | -34.93251 | -58.14518 | 7119 ft | 259 kts | 189° |
| 2026-05-03 20:32 | -34.94884 | -58.15186 | 7202 ft | 251 kts | 223° |
| 2026-05-03 20:33 | -34.95853 | -58.16899 | 7205 ft | 247 kts | 256° |
| 2026-05-03 20:33 | -34.96364 | -58.18910 | 7213 ft | 253 kts | 250° |
| 2026-05-03 20:33 | -34.97153 | -58.20823 | 7207 ft | 254 kts | 244° |
| 2026-05-03 20:33 | -34.98032 | -58.22717 | 7115 ft | 254 kts | 244° |
| 2026-05-03 20:34 | -34.98898 | -58.24566 | 6799 ft | 252 kts | 244° |
| 2026-05-03 20:34 | -34.99763 | -58.26420 | 6468 ft | 250 kts | 244° |
| 2026-05-03 20:34 | -35.00611 | -58.28244 | 6203 ft | 250 kts | 244° |
| 2026-05-03 20:34 | -35.01464 | -58.30088 | 5948 ft | 249 kts | 244° |
| 2026-05-03 20:35 | -35.02321 | -58.31946 | 5697 ft | 250 kts | 244° |
| 2026-05-03 20:35 | -35.03164 | -58.33773 | 5441 ft | 249 kts | 244° |
| 2026-05-03 20:35 | -35.04013 | -58.35622 | 5204 ft | 248 kts | 244° |
| 2026-05-03 20:35 | -35.04860 | -58.37466 | 5092 ft | 247 kts | 244° |
| 2026-05-03 20:36 | -35.05695 | -58.39284 | 5050 ft | 247 kts | 244° |
| 2026-05-03 20:36 | -35.06509 | -58.41115 | 5001 ft | 236 kts | 250° |
| 2026-05-03 20:36 | -35.06703 | -58.42933 | 4971 ft | 200 kts | 286° |
| 2026-05-03 20:36 | -35.06111 | -58.44403 | 5015 ft | 192 kts | 299° |
| 2026-05-03 20:37 | -35.05409 | -58.45798 | 4997 ft | 195 kts | 313° |
| 2026-05-03 20:37 | -35.04181 | -58.46468 | 5003 ft | 203 kts | 353° |
| 2026-05-03 20:37 | -35.02759 | -58.46499 | 4827 ft | 205 kts | 351° |
| 2026-05-03 20:37 | -35.01344 | -58.46703 | 4424 ft | 203 kts | 347° |
| 2026-05-03 20:38 | -34.99975 | -58.46975 | 3958 ft | 199 kts | 347° |
| 2026-05-03 20:38 | -34.98623 | -58.47270 | 3453 ft | 193 kts | 346° |
| 2026-05-03 20:38 | -34.97333 | -58.47642 | 2978 ft | 189 kts | 343° |
| 2026-05-03 20:38 | -34.96095 | -58.48061 | 2741 ft | 183 kts | 343° |
| 2026-05-03 20:39 | -34.94881 | -58.48484 | 2484 ft | 183 kts | 344° |
| 2026-05-03 20:39 | -34.93648 | -58.48916 | 2237 ft | 183 kts | 344° |
| 2026-05-03 20:39 | -34.92431 | -58.49342 | 1987 ft | 182 kts | 344° |
| 2026-05-03 20:39 | -34.91281 | -58.49744 | 1723 ft | 162 kts | 345° |
| 2026-05-03 20:40 | -34.90283 | -58.50094 | 1508 ft | 139 kts | 345° |
| 2026-05-03 20:40 | -34.89363 | -58.50414 | 1351 ft | 139 kts | 345° |
| 2026-05-03 20:40 | -34.88424 | -58.50742 | 1173 ft | 141 kts | 345° |
| 2026-05-03 20:40 | -34.87474 | -58.51075 | 973 ft | 142 kts | 345° |
| 2026-05-03 20:41 | -34.86850 | -58.51293 | 828 ft | 139 kts | 346° |
| 2026-05-03 20:41 | -34.85938 | -58.51611 | 651 ft | 132 kts | 346° |
| 2026-05-03 20:41 | -34.85051 | -58.51923 | 480 ft | 137 kts | 345° |
| 2026-05-03 20:41 | -34.84105 | -58.52254 | 303 ft | 140 kts | 346° |
| 2026-05-03 20:42 | -34.83170 | -58.52581 | 100 ft | 141 kts | 346° |
| 2026-05-03 20:42 | -34.82317 | -58.52873 | 72 ft | 104 kts | 343° |
| 2026-05-03 20:42 | -34.81796 | -58.53054 | 71 ft | 51 kts | 343° |
| 2026-05-03 20:42 | -34.81571 | -58.53150 | 69 ft | 25 kts | 323° |
| 2026-05-03 20:43 | -34.81493 | -58.53287 | 66 ft | 14 kts | 298° |
| 2026-05-03 20:43 | -34.81459 | -58.53363 | 74 ft | 10 kts | 300° |
| 2026-05-03 20:43 | -34.81427 | -58.53433 | 67 ft | 9 kts | 298° |
| 2026-05-03 20:43 | -34.81396 | -58.53502 | 67 ft | 9 kts | 298° |
| 2026-05-03 20:44 | -34.81365 | -58.53570 | 67 ft | 9 kts | 304° |
| 2026-05-03 20:44 | -34.81313 | -58.53586 | 67 ft | 8 kts | 356° |
| 2026-05-03 20:44 | -34.81248 | -58.53589 | 70 ft | 14 kts | 357° |
| 2026-05-03 20:44 | -34.81140 | -58.53549 | 70 ft | 18 kts | 13° |
| 2026-05-03 20:45 | -34.81041 | -58.53573 | 65 ft | 13 kts | 344° |
| 2026-05-03 20:45 | -34.80976 | -58.53607 | 69 ft | 7 kts | 306° |
| 2026-05-03 20:45 | -34.80971 | -58.53630 | 75 ft | 6 kts | 277° |
| 2026-05-03 20:45 | -34.80981 | -58.53701 | 71 ft | 5 kts | 255° |
| 2026-05-03 20:46 | -34.80986 | -58.53719 | 71 ft | 0 kts | 254° |